Olivehill, Tennessee
Current Conditions -  °F | °C
As of 10:15 AM on Monday 22 Dec 2014 (Local Time) from KSNH Reporting Station
Overcast Overcast  
Wind Chill: 52°   Ceiling: 1200
Heat Index: 52°   Visibility: 10mi
Dew Point: 48°   Wind: 9mph
Humidity: 88%   Direction: 140°SE
Pressure: 29.84"   Gusts: NA
Location:  35.27°N, 88.03°W
Report Text: KSNH 221615Z AUTO 14008KT 10SM OVC012 11/09 A2984 RMK
Loading
Personal Weather Stations






























Interactive Weather Map New forecast layout! Learn more

10-Day Weather Forecast

Advertisements
Track Severe Weather on mobile